createdAt,value
2023-02-22T00:00:51.931Z,7.59
2023-02-22T00:01:52.029Z,7.60
2023-02-22T00:02:52.069Z,7.60
2023-02-22T00:03:52.142Z,7.59
2023-02-22T00:04:52.229Z,7.62
2023-02-22T00:05:52.341Z,7.60
2023-02-22T00:06:52.440Z,7.60
2023-02-22T00:07:52.477Z,7.62
2023-02-22T00:08:52.590Z,7.62
2023-02-22T00:09:52.684Z,7.60
2023-02-22T00:10:52.820Z,7.60
2023-02-22T00:11:52.867Z,7.60
2023-02-22T00:12:52.958Z,7.59
2023-02-22T00:13:53.063Z,7.58
2023-02-22T00:14:53.165Z,7.55
2023-02-22T00:15:53.261Z,7.53
2023-02-22T00:16:53.326Z,7.53
2023-02-22T00:17:53.363Z,7.52
2023-02-22T00:18:53.514Z,7.52
2023-02-22T00:19:53.524Z,7.52
2023-02-22T00:20:53.646Z,7.49
2023-02-22T00:21:53.669Z,7.49
2023-02-22T00:22:53.781Z,7.47
2023-02-22T00:23:53.871Z,7.47
2023-02-22T00:24:53.974Z,7.49
2023-02-22T00:25:54.073Z,7.47
2023-02-22T00:26:54.204Z,7.47
2023-02-22T00:27:54.245Z,7.49
2023-02-22T00:28:54.371Z,7.49
2023-02-22T00:29:54.447Z,7.47
2023-02-22T00:30:54.579Z,7.47
2023-02-22T00:31:54.734Z,7.49
2023-02-22T00:32:54.730Z,7.45
2023-02-22T00:33:54.767Z,7.45
2023-02-22T00:34:54.875Z,7.44
2023-02-22T00:35:54.943Z,7.45
2023-02-22T00:36:54.989Z,7.45
2023-02-22T00:37:55.087Z,7.44
2023-02-22T00:38:55.169Z,7.44
2023-02-22T00:39:55.267Z,7.44
2023-02-22T00:40:55.372Z,7.44
2023-02-22T00:41:55.585Z,7.42
2023-02-22T00:42:55.529Z,7.42
2023-02-22T00:43:55.578Z,7.44
2023-02-22T00:44:55.692Z,7.45
2023-02-22T00:45:55.780Z,7.44
2023-02-22T00:46:55.838Z,7.42
2023-02-22T00:47:55.941Z,7.40
2023-02-22T00:48:56.041Z,7.35
2023-02-22T00:49:56.105Z,7.29
2023-02-22T00:50:56.247Z,7.23
2023-02-22T00:51:56.286Z,7.13
2023-02-22T00:52:56.402Z,7.02
2023-02-22T00:53:56.426Z,6.97
2023-02-22T00:54:56.560Z,6.91
2023-02-22T00:55:56.629Z,6.89
2023-02-22T00:56:56.688Z,6.87
2023-02-22T00:57:56.741Z,6.87
2023-02-22T00:58:56.848Z,6.86
2023-02-22T00:59:56.993Z,6.90
2023-02-22T01:00:57.067Z,6.89
2023-02-22T01:01:57.090Z,6.90
2023-02-22T01:02:57.200Z,6.91
2023-02-22T01:03:57.238Z,6.91
2023-02-22T01:04:57.306Z,6.94
2023-02-22T01:05:57.404Z,6.95
2023-02-22T01:06:57.466Z,6.97
2023-02-22T01:07:57.569Z,6.97
2023-02-22T01:08:57.679Z,6.97
2023-02-22T01:09:57.714Z,6.97
2023-02-22T01:10:57.860Z,6.97
2023-02-22T01:11:57.860Z,6.97
2023-02-22T01:12:57.954Z,6.98
2023-02-22T01:13:58.004Z,6.98
2023-02-22T01:14:58.155Z,6.98
2023-02-22T01:15:58.201Z,6.99
2023-02-22T01:16:58.339Z,6.98
2023-02-22T01:17:58.352Z,6.98
2023-02-22T01:18:58.446Z,6.99
2023-02-22T01:19:58.496Z,7.01
2023-02-22T01:20:58.619Z,7.01
2023-02-22T01:21:58.662Z,7.01
2023-02-22T01:22:58.757Z,6.99
2023-02-22T01:23:58.833Z,6.99
2023-02-22T01:24:58.882Z,6.99
2023-02-22T01:25:59.010Z,6.99
2023-02-22T01:26:59.050Z,6.99
2023-02-22T01:27:59.147Z,7.01
2023-02-22T01:28:59.228Z,7.01
2023-02-22T01:29:59.338Z,6.99
2023-02-22T01:30:59.607Z,7.01
2023-02-22T01:31:59.527Z,7.01
2023-02-22T01:32:59.603Z,6.99
2023-02-22T01:33:59.689Z,6.99
2023-02-22T01:34:59.799Z,7.01
2023-02-22T01:35:59.928Z,6.99
2023-02-22T01:36:59.978Z,6.99
2023-02-22T01:38:00.058Z,6.98
2023-02-22T01:39:00.130Z,6.98
2023-02-22T01:40:00.171Z,6.97
2023-02-22T01:41:00.293Z,6.97
2023-02-22T01:42:00.354Z,6.94
2023-02-22T01:43:00.441Z,6.89
2023-02-22T01:44:00.535Z,6.84
2023-02-22T01:45:00.630Z,6.81
2023-02-22T01:46:00.810Z,6.77
2023-02-22T01:47:00.759Z,6.71
2023-02-22T01:48:00.871Z,6.68
2023-02-22T01:49:00.953Z,6.63
2023-02-22T01:50:01.015Z,6.61
2023-02-22T01:51:01.159Z,6.54
2023-02-22T01:52:01.164Z,6.54
2023-02-22T01:53:01.296Z,6.51
2023-02-22T01:54:01.358Z,6.50
2023-02-22T01:55:01.464Z,6.47
2023-02-22T01:56:01.566Z,6.46
2023-02-22T01:57:01.650Z,6.44
2023-02-22T01:58:01.755Z,6.46
2023-02-22T01:59:01.848Z,6.44
2023-02-22T02:00:01.878Z,6.44
2023-02-22T02:01:02.003Z,6.44
2023-02-22T02:02:02.065Z,6.44
2023-02-22T02:03:02.160Z,6.41
2023-02-22T02:04:02.278Z,6.40
2023-02-22T02:05:02.367Z,6.36
2023-02-22T02:06:02.433Z,6.35
2023-02-22T02:07:02.468Z,6.33
2023-02-22T02:08:02.555Z,6.32
2023-02-22T02:09:02.648Z,6.30
2023-02-22T02:10:02.735Z,6.29
2023-02-22T02:11:02.877Z,6.28
2023-02-22T02:12:02.924Z,6.26
2023-02-22T02:13:03.007Z,6.26
2023-02-22T02:14:03.094Z,6.28
2023-02-22T02:15:03.201Z,6.26
2023-02-22T02:16:03.313Z,6.28
2023-02-22T02:17:03.489Z,6.28
2023-02-22T02:18:03.455Z,6.29
2023-02-22T02:19:03.532Z,6.29
2023-02-22T02:20:03.606Z,6.29
2023-02-22T02:21:03.743Z,6.28
2023-02-22T02:22:03.802Z,6.29
2023-02-22T02:23:03.936Z,6.30
2023-02-22T02:24:03.984Z,6.32
2023-02-22T02:25:04.101Z,6.33
2023-02-22T02:26:04.176Z,6.33
2023-02-22T02:27:04.231Z,6.36
2023-02-22T02:28:04.300Z,6.38
2023-02-22T02:29:04.390Z,6.41
2023-02-22T02:30:04.464Z,6.40
2023-02-22T02:31:04.588Z,6.43
2023-02-22T02:32:04.772Z,6.43
2023-02-22T02:33:04.724Z,6.43
2023-02-22T02:34:04.824Z,6.44
2023-02-22T02:35:04.921Z,6.44
2023-02-22T02:36:05.009Z,6.46
2023-02-22T02:37:05.073Z,6.46
2023-02-22T02:38:05.133Z,6.48
2023-02-22T02:39:05.322Z,6.48
2023-02-22T02:40:05.343Z,6.48
2023-02-22T02:41:05.410Z,6.48
2023-02-22T02:42:05.458Z,6.50
2023-02-22T02:43:05.564Z,6.51
2023-02-22T02:44:05.631Z,6.53
2023-02-22T02:45:05.725Z,6.51
2023-02-22T02:46:05.795Z,6.50
2023-02-22T02:47:05.925Z,6.50
2023-02-22T02:48:05.966Z,6.50
2023-02-22T02:49:06.068Z,6.48
2023-02-22T02:50:06.115Z,6.47
2023-02-22T02:51:06.273Z,6.46
2023-02-22T02:52:06.282Z,6.44
2023-02-22T02:53:06.372Z,6.44
2023-02-22T02:54:06.412Z,6.41
2023-02-22T02:55:06.544Z,6.41
2023-02-22T02:56:06.594Z,6.38
2023-02-22T02:57:06.715Z,6.33
2023-02-22T02:58:06.761Z,6.32
2023-02-22T02:59:06.885Z,6.29
2023-02-22T03:00:06.955Z,6.28
2023-02-22T03:01:07.058Z,6.28
2023-02-22T03:02:07.124Z,6.25
2023-02-22T03:03:07.220Z,6.22
2023-02-22T03:04:07.300Z,6.16
2023-02-22T03:05:07.447Z,6.14
2023-02-22T03:06:07.485Z,6.11
2023-02-22T03:07:07.536Z,6.10
2023-02-22T03:08:07.598Z,6.10
2023-02-22T03:09:07.693Z,6.07
2023-02-22T03:10:07.743Z,6.09
2023-02-22T03:11:07.857Z,6.07
2023-02-22T03:12:07.996Z,6.07
2023-02-22T03:13:08.039Z,6.07
2023-02-22T03:14:08.095Z,6.09
2023-02-22T03:15:08.163Z,6.07
2023-02-22T03:16:08.384Z,6.07
2023-02-22T03:17:08.336Z,6.09
2023-02-22T03:18:08.425Z,6.09
2023-02-22T03:19:08.518Z,6.07
2023-02-22T03:20:08.567Z,6.09
2023-02-22T03:21:08.674Z,6.09
2023-02-22T03:22:08.722Z,6.09
2023-02-22T03:23:08.834Z,6.07
2023-02-22T03:24:08.887Z,6.09
2023-02-22T03:25:09.005Z,6.09
2023-02-22T03:26:09.048Z,6.09
2023-02-22T03:27:09.150Z,6.07
2023-02-22T03:28:09.237Z,6.09
2023-02-22T03:29:09.329Z,6.09
2023-02-22T03:30:09.448Z,6.09
2023-02-22T03:31:09.552Z,6.07
2023-02-22T03:32:09.617Z,6.09
2023-02-22T03:33:09.646Z,6.06
2023-02-22T03:34:09.742Z,6.06
2023-02-22T03:35:09.820Z,6.06
2023-02-22T03:36:09.930Z,6.01
2023-02-22T03:37:10.024Z,5.96
2023-02-22T03:38:10.073Z,5.95
2023-02-22T03:39:10.165Z,5.93
2023-02-22T03:40:10.210Z,5.92
2023-02-22T03:41:10.341Z,5.92
2023-02-22T03:42:10.407Z,5.93
2023-02-22T03:43:10.497Z,5.93
2023-02-22T03:44:10.585Z,5.93
2023-02-22T03:45:10.715Z,5.95
2023-02-22T03:46:10.788Z,5.95
2023-02-22T03:47:10.858Z,5.96
2023-02-22T03:48:10.958Z,5.96
2023-02-22T03:49:11.061Z,5.96
2023-02-22T03:50:11.162Z,5.96
2023-02-22T03:51:11.328Z,5.95
2023-02-22T03:52:11.309Z,5.95
2023-02-22T03:53:11.349Z,5.93
2023-02-22T03:54:11.462Z,5.91
2023-02-22T03:55:11.513Z,5.91
2023-02-22T03:56:11.619Z,5.92
2023-02-22T03:57:11.665Z,5.92
2023-02-22T03:58:11.766Z,5.91
2023-02-22T03:59:11.817Z,5.92
2023-02-22T04:00:11.908Z,5.91
2023-02-22T04:01:12.026Z,5.92
2023-02-22T04:02:12.103Z,5.92
2023-02-22T04:03:12.274Z,5.89
2023-02-22T04:04:12.278Z,5.91
2023-02-22T04:05:12.349Z,5.88
2023-02-22T04:06:12.501Z,5.88
2023-02-22T04:07:12.529Z,5.85
2023-02-22T04:08:12.619Z,5.81
2023-02-22T04:09:12.714Z,5.75
2023-02-22T04:10:12.811Z,5.73
2023-02-22T04:11:12.907Z,5.71
2023-02-22T04:12:13.000Z,5.68
2023-02-22T04:13:13.102Z,5.66
2023-02-22T04:14:13.219Z,5.66
2023-02-22T04:15:13.278Z,5.63
2023-02-22T04:16:13.432Z,5.63
2023-02-22T04:17:13.432Z,5.63
2023-02-22T04:18:13.620Z,5.64
2023-02-22T04:19:13.634Z,5.64
2023-02-22T04:20:13.760Z,5.64
2023-02-22T04:21:13.844Z,5.66
2023-02-22T04:22:13.980Z,5.67
2023-02-22T04:23:13.977Z,5.67
2023-02-22T04:24:14.086Z,5.67
2023-02-22T04:25:14.113Z,5.70
2023-02-22T04:26:14.224Z,5.70
2023-02-22T04:27:14.296Z,5.71
2023-02-22T04:28:14.387Z,5.73
2023-02-22T04:29:14.463Z,5.74
2023-02-22T04:30:14.523Z,5.74
2023-02-22T04:31:14.806Z,5.74
2023-02-22T04:32:14.721Z,5.74
2023-02-22T04:33:14.736Z,5.74
2023-02-22T04:34:14.835Z,5.74
2023-02-22T04:35:14.932Z,5.77
2023-02-22T04:36:15.014Z,5.75
2023-02-22T04:37:15.093Z,5.75
2023-02-22T04:38:15.164Z,5.77
2023-02-22T04:39:15.278Z,5.75
2023-02-22T04:40:15.305Z,5.77
2023-02-22T04:41:15.907Z,5.75
2023-02-22T04:42:15.467Z,5.75
2023-02-22T04:43:15.523Z,5.75
2023-02-22T04:44:15.635Z,5.77
2023-02-22T04:45:15.685Z,5.77
2023-02-22T04:46:15.815Z,5.75
2023-02-22T04:47:15.888Z,5.75
2023-02-22T04:48:15.948Z,5.77
2023-02-22T04:49:16.022Z,5.75
2023-02-22T04:50:16.115Z,5.75
2023-02-22T04:51:16.605Z,5.77
2023-02-22T04:52:16.295Z,5.75
2023-02-22T04:53:16.417Z,5.74
2023-02-22T04:54:16.462Z,5.75
2023-02-22T04:55:16.568Z,5.75
2023-02-22T04:56:16.700Z,5.75
2023-02-22T04:57:16.767Z,5.75
2023-02-22T04:58:16.813Z,5.74
2023-02-22T04:59:16.910Z,5.74
2023-02-22T05:00:17.006Z,5.75
2023-02-22T05:01:17.452Z,5.73
2023-02-22T05:02:17.204Z,5.74
2023-02-22T05:03:17.272Z,5.73
2023-02-22T05:04:17.361Z,5.73
2023-02-22T05:05:17.417Z,5.73
2023-02-22T05:06:17.559Z,5.71
2023-02-22T05:07:17.595Z,5.71
2023-02-22T05:08:17.657Z,5.73
2023-02-22T05:09:17.707Z,5.71
2023-02-22T05:10:17.798Z,5.68
2023-02-22T05:11:18.233Z,5.70
2023-02-22T05:12:17.993Z,5.67
2023-02-22T05:13:18.043Z,5.66
2023-02-22T05:14:18.142Z,5.67
2023-02-22T05:15:18.271Z,5.67
2023-02-22T05:16:18.391Z,5.67
2023-02-22T05:17:18.422Z,5.66
2023-02-22T05:18:18.499Z,5.66
2023-02-22T05:19:18.562Z,5.66
2023-02-22T05:20:19.825Z,5.66
2023-02-22T05:21:19.008Z,5.66
2023-02-22T05:22:18.849Z,5.66
2023-02-22T05:23:18.923Z,5.66
2023-02-22T05:24:19.035Z,5.63
2023-02-22T05:25:19.085Z,5.60
2023-02-22T05:26:19.219Z,5.59
2023-02-22T05:27:19.283Z,5.59
2023-02-22T05:28:19.372Z,5.56
2023-02-22T05:29:19.422Z,5.57
2023-02-22T05:30:19.535Z,5.53
2023-02-22T05:31:20.078Z,5.55
2023-02-22T05:32:19.737Z,5.53
2023-02-22T05:33:19.780Z,5.53
2023-02-22T05:34:19.919Z,5.52
2023-02-22T05:35:19.978Z,5.53
2023-02-22T05:36:20.116Z,5.53
2023-02-22T05:37:20.122Z,5.52
2023-02-22T05:38:20.225Z,5.52
2023-02-22T05:39:20.325Z,5.49
2023-02-22T05:40:20.423Z,5.50
2023-02-22T05:41:20.491Z,5.50
2023-02-22T05:42:20.596Z,5.49
2023-02-22T05:43:20.638Z,5.49
2023-02-22T05:44:20.745Z,5.48
2023-02-22T05:45:20.803Z,5.46
2023-02-22T05:46:20.923Z,5.46
2023-02-22T05:47:20.969Z,5.45
2023-02-22T05:48:22.615Z,5.43
2023-02-22T05:49:21.122Z,5.41
2023-02-22T05:50:21.217Z,5.41
2023-02-22T05:51:21.318Z,5.41
2023-02-22T05:52:21.375Z,5.43
2023-02-22T05:53:21.424Z,5.40
2023-02-22T05:54:21.508Z,5.40
2023-02-22T05:55:21.545Z,5.40
2023-02-22T05:56:21.657Z,5.38
2023-02-22T05:57:21.815Z,5.34
2023-02-22T05:58:21.790Z,5.32
2023-02-22T05:59:21.856Z,5.31
2023-02-22T06:00:21.958Z,5.30
2023-02-22T06:01:22.090Z,5.28
2023-02-22T06:02:22.154Z,5.28
2023-02-22T06:03:22.210Z,5.27
2023-02-22T06:04:22.323Z,5.27
2023-02-22T06:05:22.424Z,5.27
2023-02-22T06:06:22.701Z,5.27
2023-02-22T06:07:22.563Z,5.27
2023-02-22T06:08:22.612Z,5.25
2023-02-22T06:09:22.728Z,5.25
2023-02-22T06:10:22.794Z,5.23
2023-02-22T06:11:22.854Z,5.22
2023-02-22T06:12:22.982Z,5.20
2023-02-22T06:13:23.058Z,5.19
2023-02-22T06:14:23.135Z,5.19
2023-02-22T06:15:23.205Z,5.17
2023-02-22T06:16:23.406Z,5.19
2023-02-22T06:17:23.325Z,5.17
2023-02-22T06:18:23.430Z,5.17
2023-02-22T06:19:23.474Z,5.16
2023-02-22T06:20:23.600Z,5.17
2023-02-22T06:21:23.693Z,5.17
2023-02-22T06:22:23.738Z,5.17
2023-02-22T06:23:23.840Z,5.17
2023-02-22T06:24:23.941Z,5.17
2023-02-22T06:25:24.053Z,5.19
2023-02-22T06:26:24.105Z,5.17
2023-02-22T06:27:24.153Z,5.19
2023-02-22T06:28:24.253Z,5.17
2023-02-22T06:29:24.335Z,5.17
2023-02-22T06:30:24.624Z,5.17
2023-02-22T06:31:24.555Z,5.17
2023-02-22T06:32:24.611Z,5.19
2023-02-22T06:33:24.680Z,5.17
2023-02-22T06:34:24.748Z,5.19
2023-02-22T06:35:24.801Z,5.16
2023-02-22T06:36:24.924Z,5.17
2023-02-22T06:37:24.997Z,5.17
2023-02-22T06:38:25.097Z,5.16
2023-02-22T06:39:25.142Z,5.14
2023-02-22T06:40:25.235Z,5.16
2023-02-22T06:41:25.329Z,5.14
2023-02-22T06:42:25.493Z,5.14
2023-02-22T06:43:25.465Z,5.14
2023-02-22T06:44:25.578Z,5.16
2023-02-22T06:45:25.691Z,5.14
2023-02-22T06:46:25.830Z,5.14
2023-02-22T06:47:25.802Z,5.14
2023-02-22T06:48:25.878Z,5.13
2023-02-22T06:49:25.924Z,5.10
2023-02-22T06:50:26.019Z,5.10
2023-02-22T06:51:26.094Z,5.07
2023-02-22T06:52:26.193Z,5.04
2023-02-22T06:53:26.254Z,5.04
2023-02-22T06:54:26.330Z,5.02
2023-02-22T06:55:26.400Z,5.01
2023-02-22T06:56:26.524Z,5.01
2023-02-22T06:57:26.562Z,5.01
2023-02-22T06:58:26.641Z,4.99
2023-02-22T06:59:26.742Z,5.01
2023-02-22T07:00:26.824Z,5.01
2023-02-22T07:01:26.929Z,5.01
2023-02-22T07:02:27.039Z,5.01
2023-02-22T07:03:27.169Z,5.01
2023-02-22T07:04:27.170Z,5.02
2023-02-22T07:05:27.262Z,5.02
2023-02-22T07:06:27.403Z,5.02
2023-02-22T07:07:27.436Z,5.04
2023-02-22T07:08:27.538Z,5.05
2023-02-22T07:09:27.590Z,5.04
2023-02-22T07:10:27.708Z,5.05
2023-02-22T07:11:27.760Z,5.05
2023-02-22T07:12:27.854Z,5.07
2023-02-22T07:13:27.940Z,5.09
2023-02-22T07:14:28.027Z,5.10
2023-02-22T07:15:28.196Z,5.10
2023-02-22T07:16:28.298Z,5.10
2023-02-22T07:17:28.304Z,5.12
2023-02-22T07:18:30.798Z,5.14
2023-02-22T07:19:28.435Z,5.14
2023-02-22T07:20:28.619Z,5.16
2023-02-22T07:21:28.622Z,5.16
2023-02-22T07:22:28.712Z,5.19
2023-02-22T07:23:28.821Z,5.19
2023-02-22T07:24:28.897Z,5.20
2023-02-22T07:25:28.979Z,5.22
2023-02-22T07:26:29.108Z,5.23
2023-02-22T07:27:29.163Z,5.25
2023-02-22T07:28:29.259Z,5.25
2023-02-22T07:29:29.355Z,5.27
2023-02-22T07:30:29.576Z,5.28
2023-02-22T07:31:29.779Z,5.28
2023-02-22T07:32:29.707Z,5.27
2023-02-22T07:33:29.683Z,5.30
2023-02-22T07:34:29.779Z,5.30
2023-02-22T07:35:29.877Z,5.30
2023-02-22T07:36:29.993Z,5.30
2023-02-22T07:37:29.950Z,5.28
2023-02-22T07:38:30.052Z,5.28
2023-02-22T07:39:30.108Z,5.30
2023-02-22T07:40:30.216Z,5.31
2023-02-22T07:41:30.321Z,5.30
2023-02-22T07:42:30.382Z,5.31
2023-02-22T07:43:30.409Z,5.32
2023-02-22T07:44:30.497Z,5.31
2023-02-22T07:45:30.594Z,5.34
2023-02-22T07:46:30.727Z,5.32
2023-02-22T07:47:30.803Z,5.32
2023-02-22T07:48:30.852Z,5.34
2023-02-22T07:49:30.929Z,5.34
2023-02-22T07:50:31.082Z,5.32
2023-02-22T07:51:31.115Z,5.32
2023-02-22T07:52:31.208Z,5.34
2023-02-22T07:53:31.268Z,5.35
2023-02-22T07:54:31.359Z,5.34
2023-02-22T07:55:31.404Z,5.32
2023-02-22T07:56:31.531Z,5.32
2023-02-22T07:57:31.557Z,5.32
2023-02-22T07:58:31.695Z,5.31
2023-02-22T07:59:31.743Z,5.30
2023-02-22T08:00:31.808Z,5.30
2023-02-22T08:01:31.937Z,5.28
2023-02-22T08:02:32.019Z,5.28
2023-02-22T08:03:32.123Z,5.28
2023-02-22T08:04:32.155Z,5.28
2023-02-22T08:05:32.267Z,5.27
2023-02-22T08:06:32.328Z,5.27
2023-02-22T08:07:32.454Z,5.27
2023-02-22T08:08:32.504Z,5.28
2023-02-22T08:09:32.642Z,5.27
2023-02-22T08:10:40.374Z,5.25
2023-02-22T08:11:32.796Z,5.22
2023-02-22T08:12:32.844Z,5.16
2023-02-22T08:13:32.951Z,5.14
2023-02-22T08:14:33.104Z,5.14
2023-02-22T08:15:33.117Z,5.13
2023-02-22T08:16:33.303Z,5.14
2023-02-22T08:17:33.237Z,5.16
2023-02-22T08:18:33.315Z,5.16
2023-02-22T08:19:33.385Z,5.16
2023-02-22T08:20:33.424Z,5.17
2023-02-22T08:21:33.550Z,5.19
2023-02-22T08:22:33.618Z,5.19
2023-02-22T08:23:33.727Z,5.20
2023-02-22T08:24:33.773Z,5.22
2023-02-22T08:25:33.950Z,5.23
2023-02-22T08:26:34.013Z,5.27
2023-02-22T08:27:34.054Z,5.27
2023-02-22T08:28:34.205Z,5.30
2023-02-22T08:29:34.307Z,5.31
2023-02-22T08:30:34.286Z,5.32
2023-02-22T08:31:34.422Z,5.35
2023-02-22T08:32:34.490Z,5.38
2023-02-22T08:33:34.588Z,5.38
2023-02-22T08:34:34.603Z,5.40
2023-02-22T08:35:34.695Z,5.45
2023-02-22T08:36:34.752Z,5.46
2023-02-22T08:37:34.886Z,5.48
2023-02-22T08:38:34.954Z,5.50
2023-02-22T08:39:35.024Z,5.52
2023-02-22T08:40:35.152Z,5.53
2023-02-22T08:41:35.241Z,5.57
2023-02-22T08:42:35.456Z,5.59
2023-02-22T08:43:35.361Z,5.60
2023-02-22T08:44:35.410Z,5.66
2023-02-22T08:45:35.578Z,5.67
2023-02-22T08:46:35.627Z,5.68
2023-02-22T08:47:35.684Z,5.71
2023-02-22T08:48:35.760Z,5.75
2023-02-22T08:49:35.856Z,5.77
2023-02-22T08:50:35.921Z,5.81
2023-02-22T08:51:36.087Z,5.82
2023-02-22T08:52:36.080Z,5.86
2023-02-22T08:53:36.211Z,5.86
2023-02-22T08:54:36.315Z,5.89
2023-02-22T08:55:36.330Z,5.92
2023-02-22T08:56:36.399Z,5.93
2023-02-22T08:57:36.451Z,5.96
2023-02-22T08:58:36.549Z,5.98
2023-02-22T08:59:36.602Z,6.01
2023-02-22T09:00:36.706Z,6.04
2023-02-22T09:01:37.018Z,6.07
2023-02-22T09:02:36.821Z,6.10
2023-02-22T09:03:36.970Z,6.13
2023-02-22T09:04:36.987Z,6.18
2023-02-22T09:05:37.103Z,6.19
2023-02-22T09:06:37.199Z,6.25
2023-02-22T09:07:37.261Z,6.28
2023-02-22T09:08:37.319Z,6.30
2023-02-22T09:09:37.394Z,6.33
2023-02-22T09:10:37.454Z,6.35
2023-02-22T09:11:37.569Z,6.38
2023-02-22T09:12:37.628Z,6.43
2023-02-22T09:13:37.780Z,6.44
2023-02-22T09:14:37.813Z,6.48
2023-02-22T09:15:37.956Z,6.53
2023-02-22T09:16:38.117Z,6.56
2023-02-22T09:17:38.088Z,6.61
2023-02-22T09:18:44.032Z,6.63
2023-02-22T09:19:38.311Z,6.68
2023-02-22T09:20:38.310Z,6.69
2023-02-22T09:21:38.458Z,6.68
2023-02-22T09:22:38.526Z,6.72
2023-02-22T09:23:38.619Z,6.76
2023-02-22T09:24:38.714Z,6.77
2023-02-22T09:25:38.887Z,6.80
2023-02-22T09:26:38.908Z,6.83
2023-02-22T09:27:39.049Z,6.87
2023-02-22T09:28:39.054Z,6.90
2023-02-22T09:29:39.230Z,6.97
2023-02-22T09:30:39.350Z,6.99
2023-02-22T09:31:39.441Z,7.02
2023-02-22T09:32:39.605Z,7.04
2023-02-22T09:33:39.462Z,7.07
2023-02-22T09:34:39.555Z,7.09
2023-02-22T09:35:39.633Z,7.13
2023-02-22T09:36:39.749Z,7.17
2023-02-22T09:37:39.839Z,7.23
2023-02-22T09:38:39.957Z,7.27
2023-02-22T09:39:40.075Z,7.32
2023-02-22T09:40:40.130Z,7.40
2023-02-22T09:41:40.222Z,7.42
2023-02-22T09:42:40.280Z,7.49
2023-02-22T09:43:40.349Z,7.53
2023-02-22T09:44:40.581Z,7.59
2023-02-22T09:45:40.663Z,7.66
2023-02-22T09:46:40.606Z,7.74
2023-02-22T09:47:40.698Z,7.78
2023-02-22T09:48:40.749Z,7.84
2023-02-22T09:49:40.802Z,7.89
2023-02-22T09:50:40.847Z,7.92
2023-02-22T09:51:40.987Z,7.96
2023-02-22T09:52:41.035Z,7.96
2023-02-22T09:53:41.099Z,7.99
2023-02-22T09:54:41.157Z,8.00
2023-02-22T09:55:41.245Z,7.99
2023-02-22T09:56:41.381Z,8.00
2023-02-22T09:57:41.418Z,8.02
2023-02-22T09:58:41.897Z,8.04
2023-02-22T09:59:41.662Z,8.04
2023-02-22T10:00:41.664Z,8.07
2023-02-22T10:01:41.845Z,8.08
2023-02-22T10:02:41.837Z,8.11
2023-02-22T10:03:41.981Z,8.15
2023-02-22T10:04:42.011Z,8.20
2023-02-22T10:05:42.226Z,8.25
2023-02-22T10:06:42.194Z,8.30
2023-02-22T10:07:42.281Z,8.36
2023-02-22T10:08:42.364Z,8.37
2023-02-22T10:09:42.411Z,8.42
2023-02-22T10:10:42.448Z,8.45
2023-02-22T10:11:42.565Z,8.50
2023-02-22T10:12:42.628Z,8.53
2023-02-22T10:13:42.722Z,8.54
2023-02-22T10:14:43.999Z,8.60
2023-02-22T10:15:42.934Z,8.62
2023-02-22T10:16:43.058Z,8.66
2023-02-22T10:17:43.073Z,8.71
2023-02-22T10:18:43.153Z,8.71
2023-02-22T10:19:43.257Z,8.73
2023-02-22T10:20:43.376Z,8.76
2023-02-22T10:21:43.531Z,8.78
2023-02-22T10:22:43.478Z,8.83
2023-02-22T10:23:43.576Z,8.86
2023-02-22T10:24:43.716Z,8.90
2023-02-22T10:25:43.764Z,8.96
2023-02-22T10:26:43.907Z,8.99
2023-02-22T10:27:43.960Z,9.04
2023-02-22T10:28:44.045Z,9.10
2023-02-22T10:29:44.131Z,9.15
2023-02-22T10:30:44.256Z,9.16
2023-02-22T10:31:44.427Z,9.23
2023-02-22T10:32:44.438Z,9.25
2023-02-22T10:33:44.495Z,9.28
2023-02-22T10:34:44.552Z,9.31
2023-02-22T10:35:46.839Z,9.32
2023-02-22T10:36:44.769Z,9.35
2023-02-22T10:37:44.919Z,9.40
2023-02-22T10:38:44.904Z,9.45
2023-02-22T10:39:45.093Z,9.48
2023-02-22T10:40:45.108Z,9.56
2023-02-22T10:41:45.205Z,9.60
2023-02-22T10:42:45.255Z,9.63
2023-02-22T10:43:45.349Z,9.64
2023-02-22T10:44:45.444Z,9.70
2023-02-22T10:45:45.572Z,9.75
2023-02-22T10:46:45.624Z,9.78
2023-02-22T10:47:45.729Z,9.79
2023-02-22T10:48:45.772Z,9.86
2023-02-22T10:49:45.866Z,9.94
2023-02-22T10:50:45.962Z,10.01
2023-02-22T10:51:46.111Z,10.09
2023-02-22T10:52:46.108Z,10.18
2023-02-22T10:53:46.210Z,10.26
2023-02-22T10:54:46.303Z,10.30
2023-02-22T10:55:46.404Z,10.36
2023-02-22T10:56:46.453Z,10.43
2023-02-22T10:57:46.532Z,10.52
2023-02-22T10:58:46.606Z,10.58
2023-02-22T10:59:46.702Z,10.63
2023-02-22T11:00:46.887Z,10.70
2023-02-22T11:01:46.998Z,10.76
2023-02-22T11:02:46.952Z,10.78
2023-02-22T11:03:47.051Z,10.81
2023-02-22T11:04:47.159Z,10.84
2023-02-22T11:05:47.254Z,10.86
2023-02-22T11:06:47.314Z,10.88
2023-02-22T11:07:47.399Z,10.88
2023-02-22T11:08:47.459Z,10.91
2023-02-22T11:09:47.576Z,10.92
2023-02-22T11:10:47.655Z,10.92
2023-02-22T11:11:47.780Z,10.92
2023-02-22T11:12:47.849Z,10.91
2023-02-22T11:13:47.948Z,10.92
2023-02-22T11:14:48.046Z,10.94
2023-02-22T11:15:48.873Z,10.98
2023-02-22T11:16:48.216Z,11.01
2023-02-22T11:17:48.339Z,11.03
2023-02-22T11:18:48.355Z,11.07
2023-02-22T11:19:48.472Z,11.10
2023-02-22T11:20:48.504Z,11.11
2023-02-22T11:21:48.641Z,11.14
2023-02-22T11:22:48.653Z,11.14
2023-02-22T11:23:48.767Z,11.19
2023-02-22T11:24:49.554Z,11.25
2023-02-22T11:25:48.923Z,11.27
2023-02-22T11:26:49.059Z,11.29
2023-02-22T11:27:49.102Z,11.34
2023-02-22T11:28:49.198Z,11.38
2023-02-22T11:29:49.246Z,11.39
2023-02-22T11:30:49.444Z,11.39
2023-02-22T11:31:49.652Z,11.41
2023-02-22T11:32:49.504Z,11.39
2023-02-22T11:33:49.594Z,11.41
2023-02-22T11:34:52.795Z,11.43
2023-02-22T11:35:49.776Z,11.46
2023-02-22T11:36:49.868Z,11.50
2023-02-22T11:37:49.921Z,11.57
2023-02-22T11:38:49.996Z,11.64
2023-02-22T11:39:50.067Z,11.72
2023-02-22T11:40:50.122Z,11.82
2023-02-22T11:41:50.245Z,11.89
2023-02-22T11:42:50.337Z,11.97
2023-02-22T11:43:50.400Z,12.02
2023-02-22T11:44:50.481Z,12.08
2023-02-22T11:45:59.053Z,12.12
2023-02-22T11:46:50.702Z,12.16
2023-02-22T11:47:50.703Z,12.21
2023-02-22T11:48:50.772Z,12.24
2023-02-22T11:49:50.886Z,12.30
2023-02-22T11:50:50.986Z,12.34
2023-02-22T11:51:51.121Z,12.38
2023-02-22T11:52:51.112Z,12.41
2023-02-22T11:53:51.185Z,12.44
2023-02-22T11:54:51.239Z,12.46
2023-02-22T11:55:51.347Z,12.48
2023-02-22T11:56:51.434Z,12.49
2023-02-22T11:57:51.492Z,12.54
2023-02-22T11:58:51.563Z,12.62
2023-02-22T11:59:51.662Z,12.66
2023-02-22T12:00:51.733Z,12.71
2023-02-22T12:01:51.823Z,12.78
2023-02-22T12:02:57.145Z,12.81
2023-02-22T12:03:52.076Z,12.84
2023-02-22T12:04:52.240Z,12.87
2023-02-22T12:05:52.130Z,12.89
2023-02-22T12:06:52.225Z,12.92
2023-02-22T12:07:52.297Z,12.96
2023-02-22T12:08:54.134Z,12.96
2023-02-22T12:09:52.464Z,12.97
2023-02-22T12:10:52.547Z,13.00
2023-02-22T12:11:52.642Z,13.04
2023-02-22T12:12:52.700Z,13.04
2023-02-22T12:13:52.778Z,13.09
2023-02-22T12:14:55.205Z,13.11
2023-02-22T12:15:53.049Z,13.15
2023-02-22T12:16:53.034Z,13.18
2023-02-22T12:18:00.704Z,13.21
2023-02-22T12:18:53.149Z,13.21
2023-02-22T12:19:53.211Z,13.22
2023-02-22T12:20:55.539Z,13.25
2023-02-22T12:21:53.417Z,13.29
2023-02-22T12:22:53.549Z,13.27
2023-02-22T12:23:53.560Z,13.30
2023-02-22T12:25:03.832Z,13.33
2023-02-22T12:25:53.763Z,13.36
2023-02-22T12:26:53.849Z,13.36
2023-02-22T12:27:53.980Z,13.36
2023-02-22T12:28:54.087Z,13.37
2023-02-22T12:29:54.126Z,13.37
2023-02-22T12:30:54.249Z,13.37
2023-02-22T12:31:54.296Z,13.37
2023-02-22T12:32:54.462Z,13.37
2023-02-22T12:33:54.458Z,13.40
2023-02-22T12:34:54.440Z,13.43
2023-02-22T12:35:54.501Z,13.44
2023-02-22T12:36:54.636Z,13.43
2023-02-22T12:37:54.741Z,13.44
2023-02-22T12:38:54.786Z,13.43
2023-02-22T12:39:54.871Z,13.41
2023-02-22T12:40:54.936Z,13.37
2023-02-22T12:41:55.064Z,13.37
2023-02-22T12:42:55.061Z,13.36
2023-02-22T12:43:55.124Z,13.36
2023-02-22T12:44:55.226Z,13.36
2023-02-22T12:45:55.276Z,13.33
2023-02-22T12:46:55.417Z,13.33
2023-02-22T12:47:55.485Z,13.36
2023-02-22T12:48:55.576Z,13.36
2023-02-22T12:49:55.628Z,13.36
2023-02-22T12:50:55.729Z,13.36
2023-02-22T12:51:55.833Z,13.36
2023-02-22T12:52:55.878Z,13.36
2023-02-22T12:53:55.983Z,13.36
2023-02-22T12:54:56.035Z,13.37
2023-02-22T12:55:56.708Z,13.37
2023-02-22T12:56:56.216Z,13.38
2023-02-22T12:57:56.313Z,13.40
2023-02-22T12:58:56.375Z,13.43
2023-02-22T12:59:56.430Z,13.44
2023-02-22T13:00:56.490Z,13.46
2023-02-22T13:01:56.614Z,13.49
2023-02-22T13:02:56.668Z,13.52
2023-02-22T13:03:56.707Z,13.58
2023-02-22T13:04:56.861Z,13.59
2023-02-22T13:05:56.883Z,13.61
2023-02-22T13:06:57.052Z,13.62
2023-02-22T13:07:57.074Z,13.62
2023-02-22T13:08:57.178Z,13.65
2023-02-22T13:09:57.235Z,13.69
2023-02-22T13:10:57.353Z,13.69
2023-02-22T13:11:57.417Z,13.71
2023-02-22T13:12:57.533Z,13.74
2023-02-22T13:13:57.530Z,13.77
2023-02-22T13:14:57.635Z,13.80